createdAt,value
2023-05-13T00:01:21.111Z,10.20
2023-05-13T00:03:53.042Z,10.10
2023-05-13T00:06:24.866Z,10.10
2023-05-13T00:08:56.766Z,10.10
2023-05-13T00:11:28.549Z,10.00
2023-05-13T00:14:00.220Z,10.00
2023-05-13T00:16:32.124Z,10.00
2023-05-13T00:19:03.880Z,9.90
2023-05-13T00:21:35.816Z,9.90
2023-05-13T00:24:07.910Z,9.90
2023-05-13T00:26:39.596Z,10.00
2023-05-13T00:29:11.310Z,10.00
2023-05-13T00:31:43.095Z,10.00
2023-05-13T00:34:14.879Z,10.10
2023-05-13T00:36:46.766Z,10.10
2023-05-13T00:39:18.688Z,10.20
2023-05-13T00:41:50.363Z,10.20
2023-05-13T00:44:22.151Z,10.20
2023-05-13T00:46:54.280Z,10.30
2023-05-13T00:49:26.974Z,10.30
2023-05-13T00:51:58.719Z,10.30
2023-05-13T00:54:30.645Z,10.30
2023-05-13T00:57:02.398Z,10.30
2023-05-13T00:59:34.189Z,10.30
2023-05-13T01:02:24.019Z,10.30
2023-05-13T01:05:26.781Z,10.40
2023-05-13T01:08:17.442Z,10.30
2023-05-13T01:10:59.252Z,10.30
2023-05-13T01:13:36.927Z,10.30
2023-05-13T01:16:31.146Z,10.30
2023-05-13T01:19:18.649Z,10.30
2023-05-13T01:21:54.550Z,10.30
2023-05-13T01:24:26.291Z,10.40
2023-05-13T01:26:58.810Z,10.40
2023-05-13T01:29:30.750Z,10.40
2023-05-13T01:32:03.356Z,10.40
2023-05-13T01:34:35.939Z,10.40
2023-05-13T01:37:07.927Z,10.40
2023-05-13T01:39:40.195Z,10.40
2023-05-13T01:42:11.958Z,10.40
2023-05-13T01:44:43.698Z,10.40
2023-05-13T01:47:15.866Z,10.40
2023-05-13T01:49:47.603Z,10.40
2023-05-13T01:52:19.424Z,10.40
2023-05-13T01:54:51.274Z,10.40
2023-05-13T01:57:23.113Z,10.40
2023-05-13T01:59:54.891Z,10.40
2023-05-13T02:02:26.804Z,10.40
2023-05-13T02:04:58.590Z,10.30
2023-05-13T02:07:30.355Z,10.30
2023-05-13T02:10:02.068Z,10.20
2023-05-13T02:12:33.760Z,10.10
2023-05-13T02:15:06.053Z,10.10
2023-05-13T02:17:37.842Z,10.00
2023-05-13T02:20:10.299Z,10.00
2023-05-13T02:22:42.085Z,9.90
2023-05-13T02:25:13.745Z,9.90
2023-05-13T02:27:45.582Z,9.90
2023-05-13T02:30:17.746Z,9.90
2023-05-13T02:32:49.460Z,9.80
2023-05-13T02:35:22.387Z,9.80
2023-05-13T02:37:54.403Z,9.80
2023-05-13T02:40:26.104Z,9.80
2023-05-13T02:42:57.760Z,9.80
2023-05-13T02:45:29.474Z,9.80
2023-05-13T02:48:01.149Z,9.80
2023-05-13T02:50:33.178Z,9.80
2023-05-13T02:53:04.853Z,9.80
2023-05-13T02:55:36.575Z,9.80
2023-05-13T02:58:09.602Z,9.80
2023-05-13T03:00:41.397Z,9.90
2023-05-13T03:03:13.170Z,9.90
2023-05-13T03:05:44.912Z,9.90
2023-05-13T03:08:16.590Z,9.90
2023-05-13T03:10:48.270Z,9.90
2023-05-13T03:13:19.953Z,9.90
2023-05-13T03:15:51.691Z,9.90
2023-05-13T03:18:23.489Z,9.90
2023-05-13T03:20:55.412Z,9.90
2023-05-13T03:23:27.158Z,9.90
2023-05-13T03:25:58.936Z,9.90
2023-05-13T03:28:30.809Z,9.90
2023-05-13T03:31:02.662Z,9.90
2023-05-13T03:33:34.369Z,9.80
2023-05-13T03:36:07.015Z,9.90
2023-05-13T03:38:38.686Z,9.80
2023-05-13T03:41:10.467Z,9.80
2023-05-13T03:43:42.197Z,9.80
2023-05-13T03:46:13.947Z,9.80
2023-05-13T03:48:45.752Z,9.80
2023-05-13T03:51:17.521Z,9.70
2023-05-13T03:53:49.241Z,9.70
2023-05-13T03:56:21.608Z,9.80
2023-05-13T03:58:53.474Z,9.80
2023-05-13T04:01:25.295Z,9.70
2023-05-13T04:03:57.021Z,9.70
2023-05-13T04:06:28.740Z,9.80
2023-05-13T04:09:02.038Z,9.80
2023-05-13T04:11:33.720Z,9.70
2023-05-13T04:14:05.384Z,9.70
2023-05-13T04:16:37.108Z,9.80
2023-05-13T04:19:08.876Z,9.70
2023-05-13T04:21:40.709Z,9.70
2023-05-13T04:24:12.419Z,9.70
2023-05-13T04:26:44.098Z,9.70
2023-05-13T04:29:17.934Z,9.70
2023-05-13T04:31:49.644Z,9.70
2023-05-13T04:34:21.334Z,9.70
2023-05-13T04:36:53.111Z,9.70
2023-05-13T04:39:24.850Z,9.70
2023-05-13T04:41:56.574Z,9.70
2023-05-13T04:44:28.296Z,9.70
2023-05-13T04:46:59.978Z,9.70
2023-05-13T04:49:31.898Z,9.70
2023-05-13T04:52:05.084Z,9.70
2023-05-13T04:54:38.435Z,9.80
2023-05-13T04:57:10.223Z,9.80
2023-05-13T04:59:42.013Z,9.70
2023-05-13T05:02:13.672Z,9.70
2023-05-13T05:04:45.384Z,9.70
2023-05-13T05:07:17.281Z,9.70
2023-05-13T05:09:49.352Z,9.70
2023-05-13T05:12:21.044Z,9.80
2023-05-13T05:14:52.863Z,9.70
2023-05-13T05:17:24.690Z,9.70
2023-05-13T05:19:56.419Z,9.80
2023-05-13T05:22:28.322Z,9.70
2023-05-13T05:25:00.000Z,9.70
2023-05-13T05:27:31.742Z,9.80
2023-05-13T05:30:03.745Z,9.80
2023-05-13T05:32:35.696Z,9.80
2023-05-13T05:35:08.590Z,9.80
2023-05-13T05:37:40.299Z,9.80
2023-05-13T05:40:12.535Z,9.80
2023-05-13T05:45:53.237Z,9.90
2023-05-13T05:48:24.870Z,9.90
2023-05-13T05:50:56.799Z,9.90
2023-05-13T05:53:28.549Z,10.00
2023-05-13T05:56:00.229Z,10.00
2023-05-13T05:58:31.986Z,10.00
2023-05-13T06:01:03.771Z,10.10
2023-05-13T06:03:35.467Z,10.10
2023-05-13T06:06:07.325Z,10.20
2023-05-13T06:08:38.945Z,10.20
2023-05-13T06:11:10.685Z,10.30
2023-05-13T06:13:44.006Z,10.30
2023-05-13T06:16:15.820Z,10.30
2023-05-13T06:18:47.953Z,10.30
2023-05-13T06:21:19.801Z,10.40
2023-05-13T06:23:51.476Z,10.40
2023-05-13T06:26:23.317Z,10.40
2023-05-13T06:28:55.195Z,10.50
2023-05-13T06:31:27.095Z,10.50
2023-05-13T06:33:58.801Z,10.60
2023-05-13T06:36:30.513Z,10.60
2023-05-13T06:39:02.191Z,10.60
2023-05-13T06:41:34.412Z,10.70
2023-05-13T06:44:06.816Z,10.80
2023-05-13T06:46:38.679Z,10.80
2023-05-13T06:49:10.452Z,10.70
2023-05-13T06:51:42.397Z,10.80
2023-05-13T06:54:14.289Z,10.70
2023-05-13T06:56:46.056Z,10.80
2023-05-13T06:59:17.846Z,10.70
2023-05-13T07:01:49.574Z,10.80
2023-05-13T07:04:21.585Z,11.00
2023-05-13T07:06:54.656Z,11.20
2023-05-13T07:09:27.314Z,11.30
2023-05-13T07:11:58.984Z,11.30
2023-05-13T07:14:30.785Z,11.30
2023-05-13T07:17:03.548Z,11.40
2023-05-13T07:19:35.324Z,11.50
2023-05-13T07:22:07.065Z,11.70
2023-05-13T07:24:38.863Z,11.80
2023-05-13T07:27:10.528Z,11.90
2023-05-13T07:29:42.200Z,12.00
2023-05-13T07:32:14.096Z,12.00
2023-05-13T07:34:46.080Z,12.00
2023-05-13T07:37:17.815Z,12.10
2023-05-13T07:39:49.615Z,12.10
2023-05-13T07:42:21.390Z,12.00
2023-05-13T07:44:53.046Z,12.10
2023-05-13T07:47:25.075Z,12.30
2023-05-13T07:49:56.855Z,12.60
2023-05-13T07:52:28.628Z,12.90
2023-05-13T07:55:00.701Z,13.20
2023-05-13T07:57:32.481Z,13.30
2023-05-13T08:00:04.681Z,13.40
2023-05-13T08:02:39.874Z,13.50
2023-05-13T08:05:12.420Z,13.30
2023-05-13T08:07:44.268Z,13.30
2023-05-13T08:10:16.030Z,13.30
2023-05-13T08:12:52.196Z,13.40
2023-05-13T08:15:24.948Z,13.60
2023-05-13T08:17:56.760Z,13.50
2023-05-13T08:20:30.092Z,13.50
2023-05-13T08:23:02.161Z,13.10
2023-05-13T08:25:33.864Z,12.90
2023-05-13T08:28:05.587Z,12.80
2023-05-13T08:30:37.376Z,12.60
2023-05-13T08:33:09.209Z,12.60
2023-05-13T08:35:44.206Z,12.70
2023-05-13T08:38:16.549Z,12.60
2023-05-13T08:40:48.338Z,12.50
2023-05-13T08:43:20.481Z,12.50
2023-05-13T08:45:54.808Z,12.50
2023-05-13T08:48:26.804Z,12.40
2023-05-13T08:50:59.003Z,12.20
2023-05-13T08:53:31.796Z,12.10
2023-05-13T08:56:05.403Z,12.10
2023-05-13T08:58:37.310Z,12.10
2023-05-13T09:01:09.303Z,12.10
2023-05-13T09:04:02.334Z,12.20
2023-05-13T09:06:34.417Z,12.20
2023-05-13T09:09:06.468Z,12.20
2023-05-13T09:11:40.576Z,12.10
2023-05-13T09:14:14.358Z,12.00
2023-05-13T09:16:47.988Z,11.90
2023-05-13T09:19:19.872Z,11.90
2023-05-13T09:21:52.952Z,11.90
2023-05-13T09:24:24.685Z,12.00
2023-05-13T09:26:56.472Z,12.10
2023-05-13T09:29:31.285Z,12.10
2023-05-13T09:32:09.321Z,12.10
2023-05-13T09:34:47.351Z,12.20
2023-05-13T09:37:19.109Z,12.10
2023-05-13T09:39:52.797Z,12.20
2023-05-13T09:42:24.545Z,12.30
2023-05-13T09:44:56.382Z,12.30
2023-05-13T09:47:28.160Z,12.20
2023-05-13T09:50:03.674Z,12.30
2023-05-13T09:52:36.928Z,12.40
2023-05-13T09:55:09.697Z,12.40
2023-05-13T09:57:42.315Z,12.30
2023-05-13T10:00:24.869Z,12.40
2023-05-13T10:03:02.254Z,12.50
2023-05-13T10:05:34.837Z,12.60
2023-05-13T10:08:09.638Z,12.80
2023-05-13T10:10:42.345Z,12.80
2023-05-13T10:13:16.228Z,12.70
2023-05-13T10:15:52.520Z,12.70
2023-05-13T10:18:24.483Z,12.80
2023-05-13T10:20:56.872Z,12.90
2023-05-13T10:23:29.295Z,12.90
2023-05-13T10:26:01.889Z,13.00
2023-05-13T10:28:34.413Z,13.00
2023-05-13T10:31:06.167Z,13.00
2023-05-13T10:33:37.949Z,12.90
2023-05-13T10:36:31.665Z,13.00
2023-05-13T10:39:21.641Z,13.10
2023-05-13T10:42:21.207Z,13.40
2023-05-13T10:44:57.552Z,13.50
2023-05-13T10:47:33.250Z,13.70
2023-05-13T10:50:06.733Z,13.60
2023-05-13T10:52:43.914Z,13.50
2023-05-13T10:55:18.949Z,13.40
2023-05-13T10:58:11.967Z,13.30
2023-05-13T11:00:45.406Z,13.20
2023-05-13T11:03:20.434Z,13.20
2023-05-13T11:06:13.852Z,13.30
2023-05-13T11:08:47.729Z,13.20
2023-05-13T11:11:31.045Z,13.30
2023-05-13T11:14:14.363Z,13.30
2023-05-13T11:17:07.482Z,13.40
2023-05-13T11:19:46.746Z,13.20
2023-05-13T11:22:18.528Z,13.30
2023-05-13T11:25:07.591Z,13.30
2023-05-13T11:27:41.034Z,13.50
2023-05-13T11:30:24.203Z,13.80
2023-05-13T11:32:58.184Z,14.00
2023-05-13T11:35:33.189Z,13.90
2023-05-13T11:38:06.424Z,13.90
2023-05-13T11:40:39.101Z,13.80
2023-05-13T11:43:12.229Z,13.80
2023-05-13T11:45:45.370Z,13.80
2023-05-13T11:48:20.905Z,13.70
2023-05-13T11:50:53.003Z,13.70
2023-05-13T11:53:24.843Z,13.60
2023-05-13T11:55:57.361Z,13.30
2023-05-13T11:58:29.138Z,13.10
2023-05-13T12:01:09.560Z,12.90
2023-05-13T12:03:41.661Z,12.90
2023-05-13T12:06:13.919Z,12.90
2023-05-13T12:08:46.369Z,12.80
2023-05-13T12:11:18.212Z,12.90
2023-05-13T12:13:50.382Z,12.80
2023-05-13T12:16:22.550Z,12.90
2023-05-13T12:19:06.321Z,13.10
2023-05-13T12:21:38.782Z,13.40
2023-05-13T12:24:21.484Z,13.60
2023-05-13T12:26:54.451Z,13.70
2023-05-13T12:29:26.157Z,13.70
2023-05-13T12:32:06.084Z,13.70
2023-05-13T12:34:39.033Z,13.50
2023-05-13T12:37:12.699Z,13.50
2023-05-13T12:39:44.916Z,13.50
2023-05-13T12:42:18.270Z,13.60
2023-05-13T12:44:49.992Z,13.50
2023-05-13T12:47:23.146Z,13.30
2023-05-13T12:49:56.775Z,13.30
2023-05-13T12:52:28.517Z,13.30
2023-05-13T12:55:00.180Z,13.30
2023-05-13T12:57:32.449Z,13.20
2023-05-13T13:00:05.516Z,13.30
2023-05-13T13:02:39.889Z,13.20
2023-05-13T13:05:12.010Z,13.10
2023-05-13T13:07:43.751Z,13.20
2023-05-13T13:10:16.048Z,13.30
2023-05-13T13:12:47.918Z,13.30
2023-05-13T13:15:19.743Z,13.20
2023-05-13T13:17:51.581Z,13.20
2023-05-13T13:20:23.592Z,13.20
2023-05-13T13:22:55.535Z,13.20
2023-05-13T13:25:28.773Z,13.20
2023-05-13T13:28:00.856Z,13.10
2023-05-13T13:30:32.637Z,13.20
2023-05-13T13:33:04.571Z,13.30
2023-05-13T13:35:36.327Z,13.30
2023-05-13T13:38:08.353Z,13.40
2023-05-13T13:40:40.189Z,13.60
2023-05-13T13:43:11.897Z,13.80
2023-05-13T13:45:43.762Z,14.00
2023-05-13T13:48:15.668Z,14.30
2023-05-13T13:50:48.380Z,14.60
2023-05-13T13:53:21.785Z,14.90
2023-05-13T13:55:53.541Z,14.90
2023-05-13T13:58:25.421Z,14.80
2023-05-13T14:00:57.260Z,14.60
2023-05-13T14:03:29.233Z,14.50
2023-05-13T14:06:01.055Z,14.30
2023-05-13T14:08:32.801Z,14.20
2023-05-13T14:11:04.794Z,14.10
2023-05-13T14:13:36.501Z,14.00
2023-05-13T14:16:08.242Z,13.80
2023-05-13T14:18:40.144Z,14.00
2023-05-13T14:21:11.896Z,14.00
2023-05-13T14:23:43.726Z,13.90
2023-05-13T14:26:15.734Z,13.90
2023-05-13T14:28:47.476Z,13.70
2023-05-13T14:31:19.284Z,13.70
2023-05-13T14:33:51.044Z,13.80
2023-05-13T14:36:24.228Z,14.00
2023-05-13T14:38:55.940Z,14.10
2023-05-13T14:41:29.251Z,14.20
2023-05-13T14:44:01.552Z,14.20
2023-05-13T14:46:37.089Z,14.20
2023-05-13T14:49:08.896Z,14.10
2023-05-13T14:51:40.992Z,14.10
2023-05-13T14:54:12.794Z,14.10
2023-05-13T14:56:44.791Z,14.00
2023-05-13T14:59:16.788Z,14.00
2023-05-13T15:01:48.516Z,14.20
2023-05-13T15:04:20.318Z,14.20
2023-05-13T15:06:52.122Z,14.30
2023-05-13T15:09:23.816Z,14.30
2023-05-13T15:11:55.600Z,14.30
2023-05-13T15:14:28.305Z,14.40
2023-05-13T15:17:00.294Z,14.60
2023-05-13T15:19:32.091Z,14.50
2023-05-13T15:22:05.222Z,14.30
2023-05-13T15:24:40.768Z,14.20
2023-05-13T15:27:12.532Z,14.20
2023-05-13T15:29:44.282Z,14.30
2023-05-13T15:32:16.008Z,14.60
2023-05-13T15:34:47.746Z,14.60
2023-05-13T15:37:19.496Z,14.70
2023-05-13T15:39:51.187Z,14.60
2023-05-13T15:42:23.289Z,14.70
2023-05-13T15:44:55.014Z,14.70
2023-05-13T15:47:26.748Z,14.60
2023-05-13T15:49:59.262Z,14.40
2023-05-13T15:52:31.156Z,14.30
2023-05-13T15:55:03.362Z,14.30
2023-05-13T15:57:35.089Z,14.40
2023-05-13T16:00:07.723Z,14.30
2023-05-13T16:02:39.914Z,14.00
2023-05-13T16:05:12.201Z,14.00
2023-05-13T16:07:45.235Z,14.00
2023-05-13T16:10:17.570Z,14.00
2023-05-13T16:12:49.371Z,14.10
2023-05-13T16:15:21.100Z,14.20
2023-05-13T16:17:52.919Z,14.20
2023-05-13T16:20:25.046Z,14.20
2023-05-13T16:22:57.031Z,14.10
2023-05-13T16:25:28.760Z,14.10
2023-05-13T16:28:00.730Z,13.90
2023-05-13T16:30:32.739Z,14.00
2023-05-13T16:33:04.594Z,13.90
2023-05-13T16:35:36.988Z,14.10
2023-05-13T16:38:08.654Z,14.00
2023-05-13T16:40:40.389Z,14.00
2023-05-13T16:43:12.128Z,13.90
2023-05-13T16:45:43.991Z,13.90
2023-05-13T16:48:15.779Z,13.90
2023-05-13T16:50:47.797Z,13.80
2023-05-13T16:53:22.220Z,13.80
2023-05-13T16:55:54.004Z,13.70
2023-05-13T16:58:25.720Z,13.60
2023-05-13T17:00:59.175Z,13.60
2023-05-13T17:03:31.294Z,13.50
2023-05-13T17:06:03.236Z,13.60
2023-05-13T17:08:34.952Z,13.60
2023-05-13T17:11:06.772Z,13.60
2023-05-13T17:13:38.507Z,13.60
2023-05-13T17:16:11.006Z,13.60
2023-05-13T17:18:42.835Z,13.60
2023-05-13T17:21:14.603Z,13.70
2023-05-13T17:23:46.464Z,13.60
2023-05-13T17:26:20.248Z,13.60
2023-05-13T17:28:52.368Z,13.50
2023-05-13T17:31:25.667Z,13.50
2023-05-13T17:33:57.560Z,13.40
2023-05-13T17:36:29.365Z,13.40
2023-05-13T17:39:01.080Z,13.40
2023-05-13T17:41:32.776Z,13.40
2023-05-13T17:44:05.001Z,13.40
2023-05-13T17:46:37.222Z,13.30
2023-05-13T17:49:09.128Z,13.30
2023-05-13T17:51:42.000Z,13.30
2023-05-13T17:54:14.178Z,13.20
2023-05-13T17:56:45.897Z,13.30
2023-05-13T17:59:17.609Z,13.20
2023-05-13T18:01:49.400Z,13.20
2023-05-13T18:04:21.189Z,13.20
2023-05-13T18:06:52.967Z,13.20
2023-05-13T18:09:24.686Z,13.20
2023-05-13T18:11:56.516Z,13.10
2023-05-13T18:14:32.061Z,13.10
2023-05-13T18:17:04.252Z,13.00
2023-05-13T18:19:36.504Z,13.00
2023-05-13T18:22:11.645Z,13.00
2023-05-13T18:24:43.435Z,13.00
2023-05-13T18:27:15.368Z,13.00
2023-05-13T18:29:47.180Z,12.90
2023-05-13T18:32:18.898Z,12.90
2023-05-13T18:34:50.666Z,12.90
2023-05-13T18:37:22.460Z,12.90
2023-05-13T18:39:54.205Z,12.80
2023-05-13T18:42:26.224Z,12.80
2023-05-13T18:44:57.905Z,12.80
2023-05-13T18:47:29.674Z,12.70
2023-05-13T18:50:01.573Z,12.70
2023-05-13T18:52:33.363Z,12.70
2023-05-13T18:55:05.832Z,12.60
2023-05-13T18:57:37.561Z,12.60
2023-05-13T19:00:09.645Z,12.60
2023-05-13T19:02:41.539Z,12.60
2023-05-13T19:05:13.444Z,12.60
2023-05-13T19:07:45.278Z,12.50
2023-05-13T19:10:17.159Z,12.50
2023-05-13T19:12:48.943Z,12.50
2023-05-13T19:15:21.342Z,12.40
2023-05-13T19:17:53.301Z,12.40
2023-05-13T19:20:25.894Z,12.30
2023-05-13T19:22:57.621Z,12.30
2023-05-13T19:25:29.338Z,12.20
2023-05-13T19:28:02.244Z,12.10
2023-05-13T19:30:33.923Z,12.10
2023-05-13T19:33:06.020Z,12.10
2023-05-13T19:35:37.870Z,12.00
2023-05-13T19:38:09.640Z,11.90
2023-05-13T19:40:41.353Z,11.80
2023-05-13T19:43:13.123Z,11.70
2023-05-13T19:45:44.846Z,11.60
2023-05-13T19:48:16.710Z,11.50
2023-05-13T19:50:48.442Z,11.40
2023-05-13T19:53:21.888Z,11.30
2023-05-13T19:55:53.688Z,11.30
2023-05-13T19:58:25.494Z,11.30
2023-05-13T20:00:57.348Z,11.20
2023-05-13T20:03:29.149Z,11.20
2023-05-13T20:06:01.806Z,11.20
2023-05-13T20:08:33.744Z,11.20
2023-05-13T20:11:05.538Z,11.30
2023-05-13T20:13:37.366Z,11.30
2023-05-13T20:16:09.184Z,11.30
2023-05-13T20:18:41.165Z,11.30
2023-05-13T20:21:12.899Z,11.30
2023-05-13T20:23:44.589Z,11.40
2023-05-13T20:26:16.369Z,11.40
2023-05-13T20:28:48.714Z,11.40
2023-05-13T20:31:20.500Z,11.30
2023-05-13T20:33:52.223Z,11.30
2023-05-13T20:36:23.928Z,11.20
2023-05-13T20:38:55.772Z,11.20
2023-05-13T20:41:27.557Z,11.10
2023-05-13T20:43:59.273Z,11.10
2023-05-13T20:46:31.125Z,11.00
2023-05-13T20:49:02.898Z,10.90
2023-05-13T20:51:35.146Z,10.90
2023-05-13T20:54:14.074Z,10.80
2023-05-13T20:56:45.791Z,10.70
2023-05-13T20:59:17.480Z,10.70
2023-05-13T21:01:49.329Z,10.70
2023-05-13T21:04:21.457Z,10.70
2023-05-13T21:06:53.278Z,10.60
2023-05-13T21:09:25.026Z,10.70
2023-05-13T21:11:56.717Z,10.70
2023-05-13T21:14:28.389Z,10.70
2023-05-13T21:17:03.198Z,10.70
2023-05-13T21:19:34.990Z,10.70
2023-05-13T21:22:06.752Z,10.70
2023-05-13T21:24:38.447Z,10.80
2023-05-13T21:27:10.226Z,10.80
2023-05-13T21:29:41.977Z,10.90
2023-05-13T21:32:13.794Z,10.90
2023-05-13T21:34:45.496Z,10.90
2023-05-13T21:37:17.232Z,10.90
2023-05-13T21:39:48.997Z,10.90
2023-05-13T21:42:21.092Z,10.90
2023-05-13T21:44:52.800Z,10.90
2023-05-13T21:47:24.595Z,10.90
2023-05-13T21:49:56.457Z,10.90
2023-05-13T21:52:28.256Z,11.00
2023-05-13T21:54:59.988Z,11.00
2023-05-13T21:57:31.989Z,11.00
2023-05-13T22:00:07.348Z,10.90
2023-05-13T22:02:39.103Z,10.90
2023-05-13T22:05:11.178Z,10.90
2023-05-13T22:07:42.969Z,10.90
2023-05-13T22:10:14.691Z,11.00
2023-05-13T22:12:48.083Z,11.00
2023-05-13T22:15:19.790Z,11.00
2023-05-13T22:17:52.085Z,11.00
2023-05-13T22:20:24.308Z,11.00
2023-05-13T22:22:56.414Z,11.00
2023-05-13T22:25:28.162Z,11.00
2023-05-13T22:27:59.968Z,11.00
2023-05-13T22:30:31.892Z,11.00
2023-05-13T22:33:03.729Z,11.00
2023-05-13T22:35:36.474Z,11.00
2023-05-13T22:38:08.446Z,11.00
2023-05-13T22:40:40.148Z,11.00
2023-05-13T22:43:11.898Z,11.00
2023-05-13T22:45:43.680Z,11.00
2023-05-13T22:48:15.573Z,11.00
2023-05-13T22:50:47.455Z,11.10
2023-05-13T22:53:19.398Z,11.00
2023-05-13T22:55:51.700Z,11.10
2023-05-13T22:58:23.434Z,11.10
2023-05-13T23:00:55.229Z,11.10
2023-05-13T23:03:26.960Z,11.10
2023-05-13T23:05:58.711Z,11.10
2023-05-13T23:08:30.386Z,11.10
2023-05-13T23:11:02.127Z,11.10
2023-05-13T23:13:33.890Z,11.10
2023-05-13T23:16:05.937Z,11.10
2023-05-13T23:18:37.739Z,11.10
2023-05-13T23:21:09.947Z,11.10
2023-05-13T23:23:41.678Z,11.10
2023-05-13T23:26:13.490Z,11.10
2023-05-13T23:28:45.292Z,11.10
2023-05-13T23:31:17.137Z,11.10
2023-05-13T23:33:48.957Z,11.10
2023-05-13T23:36:20.684Z,11.10
2023-05-13T23:38:52.479Z,11.10
2023-05-13T23:41:24.320Z,11.10
2023-05-13T23:43:56.102Z,11.10
2023-05-13T23:46:27.873Z,11.10
2023-05-13T23:48:59.846Z,11.10
2023-05-13T23:51:32.016Z,11.10
2023-05-13T23:54:03.953Z,11.10
2023-05-13T23:56:35.800Z,11.10
2023-05-13T23:59:08.553Z,11.20
